createdAt,value
2022-09-22T00:04:56.672Z,8.90
2022-09-22T00:07:24.451Z,8.90
2022-09-22T00:09:51.230Z,8.90
2022-09-22T00:17:40.540Z,8.80
2022-09-22T00:20:07.101Z,8.70
2022-09-22T00:22:33.798Z,8.70
2022-09-22T00:25:01.363Z,8.70
2022-09-22T00:30:45.954Z,8.70
2022-09-22T00:33:12.504Z,8.60
2022-09-22T00:35:39.063Z,8.60
2022-09-22T00:38:07.431Z,8.60
2022-09-22T00:40:34.021Z,8.50
2022-09-22T00:43:03.963Z,8.40
2022-09-22T00:48:49.231Z,8.40
2022-09-22T00:54:12.635Z,8.30
2022-09-22T00:59:39.800Z,8.30
2022-09-22T01:02:06.438Z,8.20
2022-09-22T01:04:33.018Z,8.30
2022-09-22T01:06:59.575Z,8.30
2022-09-22T01:09:35.645Z,8.30
2022-09-22T01:12:21.370Z,8.30
2022-09-22T01:14:48.106Z,8.30
2022-09-22T01:17:14.764Z,8.40
2022-09-22T01:19:50.299Z,8.40
2022-09-22T01:22:17.429Z,8.40
2022-09-22T01:24:44.445Z,8.50
2022-09-22T01:27:16.775Z,8.50
2022-09-22T01:29:51.834Z,8.50
2022-09-22T01:32:34.323Z,8.50
2022-09-22T01:35:22.934Z,8.50
2022-09-22T01:37:57.218Z,8.60
2022-09-22T01:40:26.854Z,8.60
2022-09-22T01:46:21.089Z,8.70
2022-09-22T01:48:53.374Z,8.70
2022-09-22T01:51:21.381Z,8.70
2022-09-22T01:53:54.365Z,8.60
2022-09-22T01:56:23.548Z,8.70
2022-09-22T01:59:02.567Z,8.60
2022-09-22T02:01:32.598Z,8.70
2022-09-22T02:06:56.282Z,8.70
2022-09-22T02:09:38.510Z,8.60
2022-09-22T02:15:36.143Z,8.70
2022-09-22T02:18:05.148Z,8.70
2022-09-22T02:20:56.753Z,8.60
2022-09-22T02:23:28.814Z,8.70
2022-09-22T02:26:04.387Z,8.60
2022-09-22T02:28:38.427Z,8.60
2022-09-22T02:31:31.024Z,8.60
2022-09-22T02:34:03.905Z,8.60
2022-09-22T02:36:31.751Z,8.60
2022-09-22T02:38:58.660Z,8.60
2022-09-22T02:41:27.598Z,8.60
2022-09-22T02:43:54.333Z,8.50
2022-09-22T02:46:28.186Z,8.50
2022-09-22T02:48:57.858Z,8.60
2022-09-22T02:51:24.674Z,8.50
2022-09-22T02:53:53.658Z,8.50
2022-09-22T02:56:20.127Z,8.50
2022-09-22T02:58:46.717Z,8.50
2022-09-22T03:01:13.261Z,8.50
2022-09-22T03:03:39.806Z,8.50
2022-09-22T03:06:06.321Z,8.50
2022-09-22T03:08:33.030Z,8.50
2022-09-22T03:11:02.607Z,8.50
2022-09-22T03:13:29.164Z,8.40
2022-09-22T03:15:55.759Z,8.50
2022-09-22T03:18:22.360Z,8.50
2022-09-22T03:20:48.885Z,8.50
2022-09-22T03:23:18.479Z,8.50
2022-09-22T03:25:45.093Z,8.50
2022-09-22T03:28:23.000Z,8.50
2022-09-22T03:30:49.553Z,8.50
2022-09-22T03:33:16.074Z,8.50
2022-09-22T03:35:45.229Z,8.50
2022-09-22T03:38:11.906Z,8.50
2022-09-22T03:40:44.530Z,8.50
2022-09-22T03:43:16.452Z,8.50
2022-09-22T03:45:43.385Z,8.50
2022-09-22T03:48:09.984Z,8.50
2022-09-22T03:50:36.470Z,8.50
2022-09-22T03:53:03.005Z,8.50
2022-09-22T03:55:41.390Z,8.50
2022-09-22T03:58:15.197Z,8.50
2022-09-22T04:01:19.462Z,8.50
2022-09-22T04:03:46.617Z,8.50
2022-09-22T04:06:15.904Z,8.50
2022-09-22T04:09:06.683Z,8.50
2022-09-22T04:11:33.375Z,8.50
2022-09-22T04:14:01.270Z,8.50
2022-09-22T04:16:29.696Z,8.50
2022-09-22T04:19:07.772Z,8.50
2022-09-22T04:21:37.102Z,8.50
2022-09-22T04:24:14.108Z,8.50
2022-09-22T04:27:08.572Z,8.50
2022-09-22T04:29:38.851Z,8.40
2022-09-22T04:32:05.521Z,8.40
2022-09-22T04:34:34.368Z,8.40
2022-09-22T04:39:55.484Z,8.40
2022-09-22T04:42:34.151Z,8.40
2022-09-22T04:45:02.141Z,8.40
2022-09-22T04:47:28.871Z,8.40
2022-09-22T04:49:55.433Z,8.40
2022-09-22T04:52:23.382Z,8.40
2022-09-22T04:55:00.069Z,8.40
2022-09-22T04:57:32.343Z,8.40
2022-09-22T05:00:01.381Z,8.40
2022-09-22T05:02:34.135Z,8.40
2022-09-22T05:05:00.651Z,8.40
2022-09-22T05:07:27.266Z,8.40
2022-09-22T05:09:53.808Z,8.40
2022-09-22T05:12:21.267Z,8.40
2022-09-22T05:14:54.512Z,8.40
2022-09-22T05:17:29.779Z,8.40
2022-09-22T05:19:56.457Z,8.40
2022-09-22T05:22:23.520Z,8.40
2022-09-22T05:24:50.526Z,8.30
2022-09-22T05:27:18.540Z,8.40
2022-09-22T05:29:45.354Z,8.40
2022-09-22T05:32:11.902Z,8.40
2022-09-22T05:34:38.420Z,8.40
2022-09-22T05:37:05.074Z,8.30
2022-09-22T05:39:31.594Z,8.30
2022-09-22T05:41:58.090Z,8.30
2022-09-22T05:44:24.689Z,8.40
2022-09-22T05:46:51.265Z,8.30
2022-09-22T05:49:17.817Z,8.30
2022-09-22T05:51:44.327Z,8.40
2022-09-22T05:54:10.891Z,8.40
2022-09-22T05:56:37.363Z,8.40
2022-09-22T05:59:03.909Z,8.50
2022-09-22T06:01:30.857Z,8.40
2022-09-22T06:03:57.348Z,8.50
2022-09-22T06:06:23.838Z,8.50
2022-09-22T06:08:53.443Z,8.60
2022-09-22T06:11:20.178Z,8.60
2022-09-22T06:13:48.490Z,8.60
2022-09-22T06:16:15.255Z,8.70
2022-09-22T06:18:41.784Z,8.70
2022-09-22T06:21:08.232Z,8.80
2022-09-22T06:23:37.317Z,8.90
2022-09-22T06:26:05.902Z,8.90
2022-09-22T06:28:32.998Z,9.00
2022-09-22T06:31:00.415Z,9.10
2022-09-22T06:33:26.885Z,9.10
2022-09-22T06:35:54.143Z,9.20
2022-09-22T06:38:21.268Z,9.30
2022-09-22T06:40:47.861Z,9.30
2022-09-22T06:43:15.128Z,9.40
2022-09-22T06:45:43.379Z,9.50
2022-09-22T06:48:10.604Z,9.50
2022-09-22T06:50:38.271Z,9.60
2022-09-22T06:53:05.291Z,9.70
2022-09-22T06:55:31.947Z,9.80
2022-09-22T06:58:03.083Z,9.90
2022-09-22T07:00:33.754Z,9.90
2022-09-22T07:03:00.498Z,10.00
2022-09-22T07:05:27.148Z,10.10
2022-09-22T07:07:56.629Z,10.20
2022-09-22T07:10:23.270Z,10.30
2022-09-22T07:12:49.895Z,10.40
2022-09-22T07:15:16.494Z,10.40
2022-09-22T07:17:43.377Z,10.40
2022-09-22T07:20:10.034Z,10.50
2022-09-22T07:22:39.517Z,10.50
2022-09-22T07:25:06.069Z,10.60
2022-09-22T07:27:32.596Z,10.70
2022-09-22T07:29:59.234Z,10.70
2022-09-22T07:32:30.302Z,10.80
2022-09-22T07:34:57.867Z,10.80
2022-09-22T07:37:24.435Z,10.90
2022-09-22T07:39:50.917Z,10.90
2022-09-22T07:42:17.577Z,11.00
2022-09-22T07:45:03.036Z,11.10
2022-09-22T07:47:48.552Z,11.20
2022-09-22T07:50:24.002Z,11.30
2022-09-22T07:52:50.561Z,11.40
2022-09-22T07:55:17.080Z,11.50
2022-09-22T07:57:43.617Z,11.50
2022-09-22T08:00:10.124Z,11.60
2022-09-22T08:02:36.660Z,11.70
2022-09-22T08:05:03.450Z,11.80
2022-09-22T08:07:31.437Z,11.90
2022-09-22T08:10:04.091Z,12.00
2022-09-22T08:12:30.629Z,12.10
2022-09-22T08:14:57.976Z,12.20
2022-09-22T08:17:24.581Z,12.30
2022-09-22T08:19:57.273Z,12.40
2022-09-22T08:22:24.065Z,12.50
2022-09-22T08:24:50.744Z,12.60
2022-09-22T08:30:48.976Z,12.80
2022-09-22T08:33:17.488Z,12.90
2022-09-22T08:35:44.121Z,13.10
2022-09-22T08:38:12.867Z,13.10
2022-09-22T08:40:40.407Z,13.20
2022-09-22T08:43:07.127Z,13.30
2022-09-22T08:45:33.678Z,13.40
2022-09-22T08:48:21.801Z,13.40
2022-09-22T08:51:09.498Z,13.50
2022-09-22T08:53:36.042Z,13.50
2022-09-22T08:56:03.069Z,13.50
2022-09-22T08:58:31.096Z,13.60
2022-09-22T09:00:57.672Z,13.60
2022-09-22T09:03:24.204Z,13.70
2022-09-22T09:05:50.834Z,13.80
2022-09-22T09:08:17.338Z,13.90
2022-09-22T09:10:45.159Z,14.00
2022-09-22T09:13:11.889Z,13.90
2022-09-22T09:15:38.608Z,14.10
2022-09-22T09:18:07.277Z,14.20
2022-09-22T09:20:35.295Z,14.40
2022-09-22T09:23:01.804Z,14.50
2022-09-22T09:25:28.485Z,14.60
2022-09-22T09:27:55.051Z,14.80
2022-09-22T09:30:21.569Z,14.80
2022-09-22T09:32:48.870Z,14.90
2022-09-22T09:35:15.383Z,14.90
2022-09-22T09:37:42.656Z,14.90
2022-09-22T09:40:09.231Z,14.90
2022-09-22T09:42:36.741Z,14.90
2022-09-22T09:45:03.305Z,14.90
2022-09-22T09:47:29.796Z,15.10
2022-09-22T09:49:56.569Z,15.30
2022-09-22T09:52:23.087Z,15.50
2022-09-22T09:54:49.934Z,15.60
2022-09-22T09:57:16.470Z,15.60
2022-09-22T10:00:01.919Z,15.70
2022-09-22T10:02:28.482Z,15.60
2022-09-22T10:04:55.937Z,15.80
2022-09-22T10:07:22.535Z,15.90
2022-09-22T10:09:49.011Z,15.90
2022-09-22T10:12:15.465Z,15.90
2022-09-22T10:17:23.288Z,15.80
2022-09-22T10:19:50.750Z,15.80
2022-09-22T10:22:17.585Z,15.70
2022-09-22T10:24:45.080Z,15.80
2022-09-22T10:27:11.566Z,15.80
2022-09-22T10:29:42.202Z,16.00
2022-09-22T10:32:08.700Z,16.10
2022-09-22T10:34:35.352Z,16.30
2022-09-22T10:37:01.974Z,16.50
2022-09-22T10:39:28.453Z,16.70
2022-09-22T10:41:54.977Z,16.60
2022-09-22T10:44:38.431Z,16.50
2022-09-22T10:47:09.901Z,16.50
2022-09-22T10:49:36.547Z,16.60
2022-09-22T10:52:03.218Z,16.60
2022-09-22T10:54:29.918Z,16.70
2022-09-22T10:56:56.383Z,16.70
2022-09-22T10:59:23.184Z,16.90
2022-09-22T11:01:49.956Z,17.00
2022-09-22T11:04:16.547Z,17.10
2022-09-22T11:07:01.963Z,17.20
2022-09-22T11:09:47.363Z,17.40
2022-09-22T11:12:16.904Z,17.40
2022-09-22T11:14:43.399Z,17.50
2022-09-22T11:17:10.340Z,17.60
2022-09-22T11:19:36.884Z,17.80
2022-09-22T11:22:06.703Z,17.70
2022-09-22T12:29:06.290Z,17.30
2022-09-22T12:31:32.869Z,17.60
2022-09-22T12:33:59.576Z,17.80
2022-09-22T12:36:26.045Z,17.80
2022-09-22T12:38:52.984Z,17.80
2022-09-22T12:41:19.532Z,17.90
2022-09-22T12:43:46.172Z,18.00
2022-09-22T12:46:21.828Z,18.10
2022-09-22T12:48:48.466Z,18.20
2022-09-22T12:51:21.221Z,18.30
2022-09-22T12:53:47.887Z,18.30
2022-09-22T12:56:18.947Z,18.30
2022-09-22T12:58:48.196Z,18.00
2022-09-22T13:01:24.221Z,17.90
2022-09-22T13:04:02.398Z,17.80
2022-09-22T13:06:28.934Z,17.70
2022-09-22T13:08:55.651Z,17.70
2022-09-22T13:11:24.355Z,17.60
2022-09-22T13:13:51.925Z,17.60
2022-09-22T13:16:18.478Z,17.70
2022-09-22T13:18:45.330Z,17.80
2022-09-22T13:21:11.841Z,17.90
2022-09-22T13:23:38.297Z,18.10
2022-09-22T13:26:04.963Z,18.20
2022-09-22T13:28:31.506Z,18.10
2022-09-22T13:30:58.484Z,18.10
2022-09-22T13:33:25.613Z,18.00
2022-09-22T13:35:52.171Z,18.00
2022-09-22T13:38:19.199Z,17.90
2022-09-22T13:40:45.776Z,17.90
2022-09-22T13:43:12.366Z,18.00
2022-09-22T13:45:38.976Z,18.20
2022-09-22T13:48:08.345Z,18.40
2022-09-22T13:50:35.204Z,18.60
2022-09-22T13:53:02.448Z,18.60
2022-09-22T13:55:29.274Z,18.60
2022-09-22T13:57:56.218Z,18.70
2022-09-22T15:50:52.643Z,17.20
2022-09-22T15:53:19.176Z,17.30
2022-09-22T15:55:45.642Z,17.40
2022-09-22T16:37:33.419Z,17.60
2022-09-22T16:40:00.611Z,17.50
2022-09-22T16:42:27.198Z,17.50
2022-09-22T16:44:53.734Z,17.40
2022-09-22T16:47:22.894Z,17.30
2022-09-22T16:49:51.377Z,17.20
2022-09-22T16:52:17.914Z,17.00
2022-09-22T17:02:12.491Z,16.60
2022-09-22T17:04:39.319Z,16.30
2022-09-22T18:20:34.819Z,13.50
2022-09-22T18:23:02.358Z,13.50
2022-09-22T18:25:28.988Z,13.50
2022-09-22T18:27:56.612Z,13.50
2022-09-22T18:30:23.355Z,13.50
2022-09-22T18:32:49.993Z,13.50
2022-09-22T18:35:16.740Z,13.40
2022-09-22T18:37:43.782Z,13.40
2022-09-22T18:40:14.256Z,13.30
2022-09-22T18:42:44.728Z,13.30
2022-09-22T18:45:12.339Z,13.30
2022-09-22T18:47:40.824Z,13.30
2022-09-22T18:50:07.365Z,13.30
2022-09-22T18:52:34.553Z,13.30
2022-09-22T18:55:01.889Z,13.20
2022-09-22T18:57:28.648Z,13.20
2022-09-22T18:59:57.801Z,13.20
2022-09-22T19:02:24.789Z,13.20
2022-09-22T19:04:51.692Z,13.10
2022-09-22T19:07:41.399Z,13.10
2022-09-22T19:10:09.078Z,13.00
2022-09-22T19:12:42.450Z,13.00
2022-09-22T19:15:12.726Z,13.00
2022-09-22T19:17:40.681Z,12.90
2022-09-22T19:20:07.559Z,12.90
2022-09-22T19:22:34.124Z,12.80
2022-09-22T19:25:03.900Z,12.80
2022-09-22T19:27:44.704Z,12.80
2022-09-22T19:30:11.473Z,12.80
2022-09-22T19:32:38.144Z,12.80
2022-09-22T19:35:04.668Z,12.70
2022-09-22T19:37:31.282Z,12.80
2022-09-22T19:39:57.742Z,12.70
2022-09-22T19:42:24.270Z,12.70
2022-09-22T19:44:50.789Z,12.70
2022-09-22T19:47:26.432Z,12.70
2022-09-22T19:49:53.091Z,12.60
2022-09-22T19:52:19.588Z,12.60
2022-09-22T19:54:47.081Z,12.60
2022-09-22T19:57:14.966Z,12.60
2022-09-22T20:03:07.942Z,12.50
2022-09-22T20:05:36.189Z,12.50
2022-09-22T20:08:03.709Z,12.50
2022-09-22T20:10:31.438Z,12.40
2022-09-22T20:15:53.556Z,12.30
2022-09-22T20:18:29.771Z,12.30
2022-09-22T20:20:56.308Z,12.30
2022-09-22T20:23:22.981Z,12.30
2022-09-22T20:25:52.198Z,12.30
2022-09-22T20:28:18.863Z,12.20
2022-09-22T20:30:46.804Z,12.20
2022-09-22T20:33:16.606Z,12.20
2022-09-22T20:35:45.369Z,12.10
2022-09-22T20:40:56.308Z,12.10
2022-09-22T20:43:26.404Z,12.10
2022-09-22T20:45:58.967Z,12.00
2022-09-22T20:48:25.499Z,12.00
2022-09-22T20:50:53.250Z,11.90
2022-09-22T20:53:19.801Z,11.90
2022-09-22T20:55:49.417Z,11.90
2022-09-22T20:58:16.013Z,11.80
2022-09-22T21:00:42.573Z,11.80
2022-09-22T21:03:09.112Z,11.70
2022-09-22T21:05:35.677Z,11.70
2022-09-22T21:08:20.962Z,11.60
2022-09-22T21:10:49.336Z,11.60
2022-09-22T21:13:16.067Z,11.60
2022-09-22T21:15:42.921Z,11.50
2022-09-22T21:18:09.508Z,11.50
2022-09-22T21:20:38.970Z,11.50
2022-09-22T21:23:14.629Z,11.40
2022-09-22T21:25:44.359Z,11.40
2022-09-22T21:28:11.161Z,11.40
2022-09-22T21:30:37.695Z,11.40
2022-09-22T21:33:12.779Z,11.30
2022-09-22T21:35:48.237Z,11.30
2022-09-22T21:38:15.192Z,11.30
2022-09-22T21:40:41.797Z,11.30
2022-09-22T21:43:14.634Z,11.20
2022-09-22T21:48:11.422Z,11.20
2022-09-22T21:50:37.963Z,11.20
2022-09-22T21:53:04.625Z,11.10
2022-09-22T21:55:34.470Z,11.20
2022-09-22T21:58:01.075Z,11.10
2022-09-22T22:00:50.424Z,11.10
2022-09-22T22:03:33.462Z,11.10
2022-09-22T22:06:00.180Z,11.10
2022-09-22T22:08:26.743Z,11.10
2022-09-22T22:10:53.364Z,11.10
2022-09-22T22:13:21.202Z,11.00
2022-09-22T22:15:48.220Z,11.00
2022-09-22T22:18:14.870Z,11.00
2022-09-22T22:20:41.385Z,11.00
2022-09-22T22:23:09.466Z,11.00
2022-09-22T22:25:37.155Z,10.90
2022-09-22T22:28:03.778Z,10.90
2022-09-22T22:30:30.299Z,10.90
2022-09-22T22:32:56.843Z,10.90
2022-09-22T22:35:23.534Z,10.90
2022-09-22T22:37:50.371Z,10.90
2022-09-22T22:40:16.950Z,10.90
2022-09-22T22:42:43.468Z,10.90
2022-09-22T22:45:11.437Z,10.90
2022-09-22T22:47:37.933Z,10.80
2022-09-22T22:50:04.575Z,10.80
2022-09-22T22:52:31.361Z,10.80
2022-09-22T22:54:57.928Z,10.80
2022-09-22T22:57:26.271Z,10.80
2022-09-22T22:59:52.795Z,10.80
2022-09-22T23:02:19.312Z,10.80
2022-09-22T23:04:45.799Z,10.80
2022-09-22T23:07:12.388Z,10.80
2022-09-22T23:09:38.903Z,10.80
2022-09-22T23:12:05.708Z,10.80
2022-09-22T23:14:32.238Z,10.80
2022-09-22T23:16:58.772Z,10.80
2022-09-22T23:19:25.302Z,10.80
2022-09-22T23:21:51.886Z,10.80
2022-09-22T23:24:19.365Z,10.80
2022-09-22T23:26:46.219Z,10.80
2022-09-22T23:29:12.751Z,10.80
2022-09-22T23:31:39.425Z,10.80
2022-09-22T23:34:06.170Z,10.80
2022-09-22T23:36:32.708Z,10.80
2022-09-22T23:39:03.563Z,10.70
2022-09-22T23:41:30.629Z,10.70
2022-09-22T23:43:57.268Z,10.70
2022-09-22T23:46:24.516Z,10.70
2022-09-22T23:48:51.116Z,10.70
2022-09-22T23:51:19.578Z,10.70
2022-09-22T23:53:46.152Z,10.70
2022-09-22T23:56:12.744Z,10.60
2022-09-22T23:58:39.229Z,10.60
